sensor_id;sensor_type;location;lat;lon;timestamp;P1;P2;P0
55459;PMS5003;41326;45.302;-122.946;2023-04-24T00:00:07;3;0;
55459;PMS5003;41326;45.302;-122.946;2023-04-24T00:02:37;1;1;
55459;PMS5003;41326;45.302;-122.946;2023-04-24T00:05:08;1;1;
55459;PMS5003;41326;45.302;-122.946;2023-04-24T00:07:38;0;0;
55459;PMS5003;41326;45.302;-122.946;2023-04-24T00:10:08;3;0;
55459;PMS5003;41326;45.302;-122.946;2023-04-24T00:12:38;1;1;
55459;PMS5003;41326;45.302;-122.946;2023-04-24T00:15:09;2;2;
55459;PMS5003;41326;45.302;-122.946;2023-04-24T00:17:39;3;2;
55459;PMS5003;41326;45.302;-122.946;2023-04-24T00:20:10;2;0;
55459;PMS5003;41326;45.302;-122.946;2023-04-24T00:22:40;0;0;
55459;PMS5003;41326;45.302;-122.946;2023-04-24T00:25:10;0;0;
55459;PMS5003;41326;45.302;-122.946;2023-04-24T00:27:40;1;1;
55459;PMS5003;41326;45.302;-122.946;2023-04-24T00:30:11;2;2;
55459;PMS5003;41326;45.302;-122.946;2023-04-24T00:32:41;4;2;
55459;PMS5003;41326;45.302;-122.946;2023-04-24T00:35:12;2;2;
55459;PMS5003;41326;45.302;-122.946;2023-04-24T00:37:42;2;2;
55459;PMS5003;41326;45.302;-122.946;2023-04-24T00:40:12;1;0;
55459;PMS5003;41326;45.302;-122.946;2023-04-24T00:42:43;2;1;
55459;PMS5003;41326;45.302;-122.946;2023-04-24T00:45:12;0;0;
55459;PMS5003;41326;45.302;-122.946;2023-04-24T00:47:43;2;0;
55459;PMS5003;41326;45.302;-122.946;2023-04-24T00:50:14;0;0;
55459;PMS5003;41326;45.302;-122.946;2023-04-24T00:52:44;0;0;
55459;PMS5003;41326;45.302;-122.946;2023-04-24T00:55:14;0;0;
55459;PMS5003;41326;45.302;-122.946;2023-04-24T00:57:45;2;1;
55459;PMS5003;41326;45.302;-122.946;2023-04-24T01:00:15;1;1;
55459;PMS5003;41326;45.302;-122.946;2023-04-24T01:02:45;0;0;
55459;PMS5003;41326;45.302;-122.946;2023-04-24T01:05:16;0;0;
55459;PMS5003;41326;45.302;-122.946;2023-04-24T01:07:46;1;0;
55459;PMS5003;41326;45.302;-122.946;2023-04-24T01:10:16;2;0;
55459;PMS5003;41326;45.302;-122.946;2023-04-24T01:12:47;2;0;
55459;PMS5003;41326;45.302;-122.946;2023-04-24T01:15:17;1;1;
55459;PMS5003;41326;45.302;-122.946;2023-04-24T01:17:48;1;1;
55459;PMS5003;41326;45.302;-122.946;2023-04-24T01:20:18;0;0;
55459;PMS5003;41326;45.302;-122.946;2023-04-24T01:22:49;0;0;
55459;PMS5003;41326;45.302;-122.946;2023-04-24T01:25:19;1;1;
55459;PMS5003;41326;45.302;-122.946;2023-04-24T01:27:49;1;1;
55459;PMS5003;41326;45.302;-122.946;2023-04-24T01:30:19;1;1;
55459;PMS5003;41326;45.302;-122.946;2023-04-24T01:32:50;0;0;
55459;PMS5003;41326;45.302;-122.946;2023-04-24T01:35:20;0;0;
55459;PMS5003;41326;45.302;-122.946;2023-04-24T01:37:51;0;0;
55459;PMS5003;41326;45.302;-122.946;2023-04-24T01:40:21;0;0;
55459;PMS5003;41326;45.302;-122.946;2023-04-24T01:42:51;1;1;
55459;PMS5003;41326;45.302;-122.946;2023-04-24T01:45:22;0;0;
55459;PMS5003;41326;45.302;-122.946;2023-04-24T01:47:52;3;1;
55459;PMS5003;41326;45.302;-122.946;2023-04-24T01:50:22;0;0;
55459;PMS5003;41326;45.302;-122.946;2023-04-24T01:52:52;1;0;
55459;PMS5003;41326;45.302;-122.946;2023-04-24T01:55:23;1;1;
55459;PMS5003;41326;45.302;-122.946;2023-04-24T01:57:54;2;1;
55459;PMS5003;41326;45.302;-122.946;2023-04-24T02:00:24;1;1;
55459;PMS5003;41326;45.302;-122.946;2023-04-24T02:02:55;1;1;
55459;PMS5003;41326;45.302;-122.946;2023-04-24T02:05:25;0;0;
55459;PMS5003;41326;45.302;-122.946;2023-04-24T02:07:56;2;1;
55459;PMS5003;41326;45.302;-122.946;2023-04-24T02:10:26;0;0;
55459;PMS5003;41326;45.302;-122.946;2023-04-24T02:12:57;0;0;
55459;PMS5003;41326;45.302;-122.946;2023-04-24T02:15:27;0;0;
55459;PMS5003;41326;45.302;-122.946;2023-04-24T02:17:57;0;0;
55459;PMS5003;41326;45.302;-122.946;2023-04-24T02:20:27;0;0;
55459;PMS5003;41326;45.302;-122.946;2023-04-24T02:22:58;0;0;
55459;PMS5003;41326;45.302;-122.946;2023-04-24T02:25:28;1;1;
55459;PMS5003;41326;45.302;-122.946;2023-04-24T02:27:58;1;0;
55459;PMS5003;41326;45.302;-122.946;2023-04-24T02:30:29;0;0;
55459;PMS5003;41326;45.302;-122.946;2023-04-24T02:32:59;0;0;
55459;PMS5003;41326;45.302;-122.946;2023-04-24T02:35:29;0;0;
55459;PMS5003;41326;45.302;-122.946;2023-04-24T02:37:59;0;0;
55459;PMS5003;41326;45.302;-122.946;2023-04-24T02:40:30;0;0;
55459;PMS5003;41326;45.302;-122.946;2023-04-24T02:43:01;0;0;
55459;PMS5003;41326;45.302;-122.946;2023-04-24T02:45:31;0;0;
55459;PMS5003;41326;45.302;-122.946;2023-04-24T02:48:01;0;0;
55459;PMS5003;41326;45.302;-122.946;2023-04-24T02:50:32;0;0;
55459;PMS5003;41326;45.302;-122.946;2023-04-24T02:53:02;1;0;
55459;PMS5003;41326;45.302;-122.946;2023-04-24T02:55:33;0;0;
55459;PMS5003;41326;45.302;-122.946;2023-04-24T02:58:03;2;1;
55459;PMS5003;41326;45.302;-122.946;2023-04-24T03:00:34;0;0;
55459;PMS5003;41326;45.302;-122.946;2023-04-24T03:03:04;0;0;
55459;PMS5003;41326;45.302;-122.946;2023-04-24T03:05:34;0;0;
55459;PMS5003;41326;45.302;-122.946;2023-04-24T03:08:05;1;1;
55459;PMS5003;41326;45.302;-122.946;2023-04-24T03:10:35;0;0;
55459;PMS5003;41326;45.302;-122.946;2023-04-24T03:13:05;0;0;
55459;PMS5003;41326;45.302;-122.946;2023-04-24T03:15:35;0;0;
55459;PMS5003;41326;45.302;-122.946;2023-04-24T03:18:06;0;0;
55459;PMS5003;41326;45.302;-122.946;2023-04-24T03:20:36;2;0;
55459;PMS5003;41326;45.302;-122.946;2023-04-24T03:23:07;1;1;
55459;PMS5003;41326;45.302;-122.946;2023-04-24T03:25:37;0;0;
55459;PMS5003;41326;45.302;-122.946;2023-04-24T03:28:07;0;0;
55459;PMS5003;41326;45.302;-122.946;2023-04-24T03:30:38;1;1;
55459;PMS5003;41326;45.302;-122.946;2023-04-24T03:33:09;0;0;
55459;PMS5003;41326;45.302;-122.946;2023-04-24T03:35:39;0;0;
55459;PMS5003;41326;45.302;-122.946;2023-04-24T03:38:09;0;0;
55459;PMS5003;41326;45.302;-122.946;2023-04-24T03:40:39;2;1;
55459;PMS5003;41326;45.302;-122.946;2023-04-24T03:43:10;2;1;
55459;PMS5003;41326;45.302;-122.946;2023-04-24T03:45:40;0;0;
55459;PMS5003;41326;45.302;-122.946;2023-04-24T03:48:10;0;0;
55459;PMS5003;41326;45.302;-122.946;2023-04-24T03:50:40;0;0;
55459;PMS5003;41326;45.302;-122.946;2023-04-24T03:53:11;1;1;
55459;PMS5003;41326;45.302;-122.946;2023-04-24T03:55:41;0;0;
55459;PMS5003;41326;45.302;-122.946;2023-04-24T03:58:12;2;1;
55459;PMS5003;41326;45.302;-122.946;2023-04-24T04:00:42;2;1;
55459;PMS5003;41326;45.302;-122.946;2023-04-24T04:03:12;2;0;
55459;PMS5003;41326;45.302;-122.946;2023-04-24T04:05:43;1;0;
55459;PMS5003;41326;45.302;-122.946;2023-04-24T04:08:13;0;0;
55459;PMS5003;41326;45.302;-122.946;2023-04-24T04:10:44;0;0;
55459;PMS5003;41326;45.302;-122.946;2023-04-24T04:13:14;2;0;
55459;PMS5003;41326;45.302;-122.946;2023-04-24T04:15:44;0;0;
55459;PMS5003;41326;45.302;-122.946;2023-04-24T04:18:14;0;0;
55459;PMS5003;41326;45.302;-122.946;2023-04-24T04:20:45;0;0;
55459;PMS5003;41326;45.302;-122.946;2023-04-24T04:23:15;3;1;
55459;PMS5003;41326;45.302;-122.946;2023-04-24T04:25:46;0;0;
55459;PMS5003;41326;45.302;-122.946;2023-04-24T04:28:16;2;1;
55459;PMS5003;41326;45.302;-122.946;2023-04-24T04:30:46;0;0;
55459;PMS5003;41326;45.302;-122.946;2023-04-24T04:33:17;0;0;
55459;PMS5003;41326;45.302;-122.946;2023-04-24T04:35:48;3;2;
55459;PMS5003;41326;45.302;-122.946;2023-04-24T04:38:18;5;4;
55459;PMS5003;41326;45.302;-122.946;2023-04-24T04:40:48;17;9;
55459;PMS5003;41326;45.302;-122.946;2023-04-24T04:43:19;9;9;
55459;PMS5003;41326;45.302;-122.946;2023-04-24T04:45:49;6;6;
55459;PMS5003;41326;45.302;-122.946;2023-04-24T04:48:19;7;6;
55459;PMS5003;41326;45.302;-122.946;2023-04-24T04:50:49;7;5;
55459;PMS5003;41326;45.302;-122.946;2023-04-24T04:53:19;6;5;
55459;PMS5003;41326;45.302;-122.946;2023-04-24T04:55:50;6;3;
55459;PMS5003;41326;45.302;-122.946;2023-04-24T04:58:21;3;3;
55459;PMS5003;41326;45.302;-122.946;2023-04-24T05:00:51;6;3;
55459;PMS5003;41326;45.302;-122.946;2023-04-24T05:03:21;1;1;
55459;PMS5003;41326;45.302;-122.946;2023-04-24T05:05:52;3;2;
55459;PMS5003;41326;45.302;-122.946;2023-04-24T05:08:22;1;1;
55459;PMS5003;41326;45.302;-122.946;2023-04-24T05:10:52;1;1;
55459;PMS5003;41326;45.302;-122.946;2023-04-24T05:13:23;2;1;
55459;PMS5003;41326;45.302;-122.946;2023-04-24T05:15:53;2;1;
55459;PMS5003;41326;45.302;-122.946;2023-04-24T05:18:24;2;2;
55459;PMS5003;41326;45.302;-122.946;2023-04-24T05:20:55;3;1;
55459;PMS5003;41326;45.302;-122.946;2023-04-24T05:23:25;4;2;
55459;PMS5003;41326;45.302;-122.946;2023-04-24T05:25:55;3;1;
55459;PMS5003;41326;45.302;-122.946;2023-04-24T05:28:25;1;1;
55459;PMS5003;41326;45.302;-122.946;2023-04-24T05:30:55;1;0;
55459;PMS5003;41326;45.302;-122.946;2023-04-24T05:33:26;2;1;
55459;PMS5003;41326;45.302;-122.946;2023-04-24T05:35:57;0;0;
55459;PMS5003;41326;45.302;-122.946;2023-04-24T05:38:27;1;1;
55459;PMS5003;41326;45.302;-122.946;2023-04-24T05:40:58;4;1;
55459;PMS5003;41326;45.302;-122.946;2023-04-24T05:43:28;2;0;
55459;PMS5003;41326;45.302;-122.946;2023-04-24T05:45:58;0;0;
55459;PMS5003;41326;45.302;-122.946;2023-04-24T05:48:29;3;2;
55459;PMS5003;41326;45.302;-122.946;2023-04-24T05:50:59;0;0;
55459;PMS5003;41326;45.302;-122.946;2023-04-24T05:53:30;1;1;
55459;PMS5003;41326;45.302;-122.946;2023-04-24T05:56:00;2;0;
55459;PMS5003;41326;45.302;-122.946;2023-04-24T05:58:31;3;2;
55459;PMS5003;41326;45.302;-122.946;2023-04-24T06:01:01;1;1;
55459;PMS5003;41326;45.302;-122.946;2023-04-24T06:03:32;1;1;
55459;PMS5003;41326;45.302;-122.946;2023-04-24T06:06:02;1;0;
55459;PMS5003;41326;45.302;-122.946;2023-04-24T06:08:33;3;2;
55459;PMS5003;41326;45.302;-122.946;2023-04-24T06:11:03;2;1;
55459;PMS5003;41326;45.302;-122.946;2023-04-24T06:13:33;0;0;
55459;PMS5003;41326;45.302;-122.946;2023-04-24T06:16:04;2;1;
55459;PMS5003;41326;45.302;-122.946;2023-04-24T06:18:34;1;0;
55459;PMS5003;41326;45.302;-122.946;2023-04-24T06:21:04;1;1;
55459;PMS5003;41326;45.302;-122.946;2023-04-24T06:23:34;0;0;
55459;PMS5003;41326;45.302;-122.946;2023-04-24T06:26:05;1;0;
55459;PMS5003;41326;45.302;-122.946;2023-04-24T06:28:35;1;0;
55459;PMS5003;41326;45.302;-122.946;2023-04-24T06:31:06;1;1;
55459;PMS5003;41326;45.302;-122.946;2023-04-24T06:33:36;4;1;
55459;PMS5003;41326;45.302;-122.946;2023-04-24T06:36:06;1;1;
55459;PMS5003;41326;45.302;-122.946;2023-04-24T06:38:36;0;0;
55459;PMS5003;41326;45.302;-122.946;2023-04-24T06:41:07;1;1;
55459;PMS5003;41326;45.302;-122.946;2023-04-24T06:43:37;0;0;
55459;PMS5003;41326;45.302;-122.946;2023-04-24T06:46:08;4;1;
55459;PMS5003;41326;45.302;-122.946;2023-04-24T06:48:38;3;1;
55459;PMS5003;41326;45.302;-122.946;2023-04-24T06:51:08;3;3;
55459;PMS5003;41326;45.302;-122.946;2023-04-24T06:53:39;2;0;
55459;PMS5003;41326;45.302;-122.946;2023-04-24T06:56:09;2;1;
55459;PMS5003;41326;45.302;-122.946;2023-04-24T06:58:40;2;0;
55459;PMS5003;41326;45.302;-122.946;2023-04-24T07:01:10;1;1;
55459;PMS5003;41326;45.302;-122.946;2023-04-24T07:03:40;2;0;
55459;PMS5003;41326;45.302;-122.946;2023-04-24T07:06:10;0;0;
55459;PMS5003;41326;45.302;-122.946;2023-04-24T07:08:41;1;1;
55459;PMS5003;41326;45.302;-122.946;2023-04-24T07:11:11;3;2;
55459;PMS5003;41326;45.302;-122.946;2023-04-24T07:13:42;0;0;
55459;PMS5003;41326;45.302;-122.946;2023-04-24T07:16:12;1;0;
55459;PMS5003;41326;45.302;-122.946;2023-04-24T07:18:43;0;0;
55459;PMS5003;41326;45.302;-122.946;2023-04-24T07:21:13;2;1;
55459;PMS5003;41326;45.302;-122.946;2023-04-24T07:23:43;0;0;
55459;PMS5003;41326;45.302;-122.946;2023-04-24T07:26:14;1;1;
55459;PMS5003;41326;45.302;-122.946;2023-04-24T07:28:44;0;0;
55459;PMS5003;41326;45.302;-122.946;2023-04-24T07:31:15;2;0;
55459;PMS5003;41326;45.302;-122.946;2023-04-24T07:33:45;0;0;
55459;PMS5003;41326;45.302;-122.946;2023-04-24T07:36:15;1;1;
55459;PMS5003;41326;45.302;-122.946;2023-04-24T07:38:46;0;0;
55459;PMS5003;41326;45.302;-122.946;2023-04-24T07:41:16;0;0;
55459;PMS5003;41326;45.302;-122.946;2023-04-24T07:43:47;1;1;
55459;PMS5003;41326;45.302;-122.946;2023-04-24T07:46:18;0;0;
55459;PMS5003;41326;45.302;-122.946;2023-04-24T07:48:48;1;1;
55459;PMS5003;41326;45.302;-122.946;2023-04-24T07:51:19;1;1;
55459;PMS5003;41326;45.302;-122.946;2023-04-24T07:53:49;1;1;
55459;PMS5003;41326;45.302;-122.946;2023-04-24T07:56:19;6;1;
55459;PMS5003;41326;45.302;-122.946;2023-04-24T07:58:49;4;1;
55459;PMS5003;41326;45.302;-122.946;2023-04-24T08:01:20;2;0;
55459;PMS5003;41326;45.302;-122.946;2023-04-24T08:03:50;2;0;
55459;PMS5003;41326;45.302;-122.946;2023-04-24T08:06:21;1;1;
55459;PMS5003;41326;45.302;-122.946;2023-04-24T08:08:51;1;0;
55459;PMS5003;41326;45.302;-122.946;2023-04-24T08:12:29;1;1;
55459;PMS5003;41326;45.302;-122.946;2023-04-24T08:15:00;3;1;
55459;PMS5003;41326;45.302;-122.946;2023-04-24T08:17:31;1;1;
55459;PMS5003;41326;45.302;-122.946;2023-04-24T08:20:01;3;2;
55459;PMS5003;41326;45.302;-122.946;2023-04-24T08:22:31;0;0;
55459;PMS5003;41326;45.302;-122.946;2023-04-24T08:25:02;0;0;
55459;PMS5003;41326;45.302;-122.946;2023-04-24T08:27:31;1;1;
55459;PMS5003;41326;45.302;-122.946;2023-04-24T08:30:02;0;0;
55459;PMS5003;41326;45.302;-122.946;2023-04-24T08:32:41;1;1;
55459;PMS5003;41326;45.302;-122.946;2023-04-24T08:35:11;0;0;
55459;PMS5003;41326;45.302;-122.946;2023-04-24T08:37:42;0;0;
55459;PMS5003;41326;45.302;-122.946;2023-04-24T08:40:13;1;1;
55459;PMS5003;41326;45.302;-122.946;2023-04-24T08:42:42;1;1;
55459;PMS5003;41326;45.302;-122.946;2023-04-24T08:45:12;1;1;
55459;PMS5003;41326;45.302;-122.946;2023-04-24T08:47:43;0;0;
55459;PMS5003;41326;45.302;-122.946;2023-04-24T08:50:13;0;0;
55459;PMS5003;41326;45.302;-122.946;2023-04-24T08:52:44;1;1;
55459;PMS5003;41326;45.302;-122.946;2023-04-24T08:55:14;0;0;
55459;PMS5003;41326;45.302;-122.946;2023-04-24T08:57:45;1;1;
55459;PMS5003;41326;45.302;-122.946;2023-04-24T09:00:15;2;1;
55459;PMS5003;41326;45.302;-122.946;2023-04-24T09:02:46;0;0;
55459;PMS5003;41326;45.302;-122.946;2023-04-24T09:05:16;0;0;
55459;PMS5003;41326;45.302;-122.946;2023-04-24T09:07:48;0;0;
55459;PMS5003;41326;45.302;-122.946;2023-04-24T09:10:17;1;0;
55459;PMS5003;41326;45.302;-122.946;2023-04-24T09:12:47;1;1;
55459;PMS5003;41326;45.302;-122.946;2023-04-24T09:15:20;0;0;
55459;PMS5003;41326;45.302;-122.946;2023-04-24T09:17:48;0;0;
55459;PMS5003;41326;45.302;-122.946;2023-04-24T09:20:18;0;0;
55459;PMS5003;41326;45.302;-122.946;2023-04-24T09:22:52;0;0;
55459;PMS5003;41326;45.302;-122.946;2023-04-24T09:25:19;1;0;
55459;PMS5003;41326;45.302;-122.946;2023-04-24T09:27:50;0;0;
55459;PMS5003;41326;45.302;-122.946;2023-04-24T09:30:21;0;0;
55459;PMS5003;41326;45.302;-122.946;2023-04-24T09:32:53;0;0;
55459;PMS5003;41326;45.302;-122.946;2023-04-24T09:35:21;0;0;
55459;PMS5003;41326;45.302;-122.946;2023-04-24T09:37:52;0;0;
55459;PMS5003;41326;45.302;-122.946;2023-04-24T09:40:22;0;0;
55459;PMS5003;41326;45.302;-122.946;2023-04-24T09:42:53;1;1;
55459;PMS5003;41326;45.302;-122.946;2023-04-24T09:45:23;0;0;
55459;PMS5003;41326;45.302;-122.946;2023-04-24T09:47:54;0;0;
55459;PMS5003;41326;45.302;-122.946;2023-04-24T09:50:24;0;0;
55459;PMS5003;41326;45.302;-122.946;2023-04-24T09:52:58;0;0;
55459;PMS5003;41326;45.302;-122.946;2023-04-24T09:55:25;4;1;
55459;PMS5003;41326;45.302;-122.946;2023-04-24T09:57:55;0;0;
55459;PMS5003;41326;45.302;-122.946;2023-04-24T10:00:26;0;0;
55459;PMS5003;41326;45.302;-122.946;2023-04-24T10:02:56;0;0;
55459;PMS5003;41326;45.302;-122.946;2023-04-24T10:05:27;0;0;
55459;PMS5003;41326;45.302;-122.946;2023-04-24T10:07:57;1;0;
55459;PMS5003;41326;45.302;-122.946;2023-04-24T10:10:26;1;0;
55459;PMS5003;41326;45.302;-122.946;2023-04-24T10:12:57;0;0;
55459;PMS5003;41326;45.302;-122.946;2023-04-24T10:15:27;2;2;
55459;PMS5003;41326;45.302;-122.946;2023-04-24T10:17:57;0;0;
55459;PMS5003;41326;45.302;-122.946;2023-04-24T10:20:28;0;0;
55459;PMS5003;41326;45.302;-122.946;2023-04-24T10:22:59;0;0;
55459;PMS5003;41326;45.302;-122.946;2023-04-24T10:25:29;2;1;
55459;PMS5003;41326;45.302;-122.946;2023-04-24T10:27:59;1;1;
55459;PMS5003;41326;45.302;-122.946;2023-04-24T10:30:30;0;0;
55459;PMS5003;41326;45.302;-122.946;2023-04-24T10:32:59;1;1;
55459;PMS5003;41326;45.302;-122.946;2023-04-24T10:35:31;0;0;
55459;PMS5003;41326;45.302;-122.946;2023-04-24T10:38:03;0;0;
55459;PMS5003;41326;45.302;-122.946;2023-04-24T10:40:31;0;0;
55459;PMS5003;41326;45.302;-122.946;2023-04-24T10:43:02;1;1;
55459;PMS5003;41326;45.302;-122.946;2023-04-24T10:45:32;0;0;
55459;PMS5003;41326;45.302;-122.946;2023-04-24T10:48:02;1;0;
55459;PMS5003;41326;45.302;-122.946;2023-04-24T10:53:06;1;1;
55459;PMS5003;41326;45.302;-122.946;2023-04-24T10:58:04;1;0;
55459;PMS5003;41326;45.302;-122.946;2023-04-24T11:00:34;0;0;
55459;PMS5003;41326;45.302;-122.946;2023-04-24T11:03:04;0;0;
55459;PMS5003;41326;45.302;-122.946;2023-04-24T11:10:38;0;0;
55459;PMS5003;41326;45.302;-122.946;2023-04-24T11:13:05;2;0;
55459;PMS5003;41326;45.302;-122.946;2023-04-24T11:15:36;0;0;
55459;PMS5003;41326;45.302;-122.946;2023-04-24T11:18:06;1;0;
55459;PMS5003;41326;45.302;-122.946;2023-04-24T11:20:38;0;0;
55459;PMS5003;41326;45.302;-122.946;2023-04-24T11:23:07;0;0;
55459;PMS5003;41326;45.302;-122.946;2023-04-24T11:25:37;1;0;
55459;PMS5003;41326;45.302;-122.946;2023-04-24T11:28:07;0;0;
55459;PMS5003;41326;45.302;-122.946;2023-04-24T11:30:37;1;0;
55459;PMS5003;41326;45.302;-122.946;2023-04-24T11:33:08;3;0;
55459;PMS5003;41326;45.302;-122.946;2023-04-24T11:35:39;2;0;
55459;PMS5003;41326;45.302;-122.946;2023-04-24T11:38:09;0;0;
55459;PMS5003;41326;45.302;-122.946;2023-04-24T11:40:39;0;0;
55459;PMS5003;41326;45.302;-122.946;2023-04-24T11:43:09;0;0;
55459;PMS5003;41326;45.302;-122.946;2023-04-24T11:45:47;0;0;
55459;PMS5003;41326;45.302;-122.946;2023-04-24T11:48:10;2;0;
55459;PMS5003;41326;45.302;-122.946;2023-04-24T11:50:45;0;0;
55459;PMS5003;41326;45.302;-122.946;2023-04-24T11:53:10;0;0;
55459;PMS5003;41326;45.302;-122.946;2023-04-24T11:55:41;2;0;
55459;PMS5003;41326;45.302;-122.946;2023-04-24T11:58:12;0;0;
55459;PMS5003;41326;45.302;-122.946;2023-04-24T12:00:42;0;0;
55459;PMS5003;41326;45.302;-122.946;2023-04-24T12:03:12;0;0;
55459;PMS5003;41326;45.302;-122.946;2023-04-24T12:05:42;0;0;
55459;PMS5003;41326;45.302;-122.946;2023-04-24T12:08:15;0;0;
55459;PMS5003;41326;45.302;-122.946;2023-04-24T12:10:44;1;0;
55459;PMS5003;41326;45.302;-122.946;2023-04-24T12:13:14;0;0;
55459;PMS5003;41326;45.302;-122.946;2023-04-24T12:15:44;0;0;
55459;PMS5003;41326;45.302;-122.946;2023-04-24T12:18:15;0;0;
55459;PMS5003;41326;45.302;-122.946;2023-04-24T12:20:45;0;0;
55459;PMS5003;41326;45.302;-122.946;2023-04-24T12:23:15;0;0;
55459;PMS5003;41326;45.302;-122.946;2023-04-24T12:25:46;0;0;
55459;PMS5003;41326;45.302;-122.946;2023-04-24T12:28:16;0;0;
55459;PMS5003;41326;45.302;-122.946;2023-04-24T12:30:47;0;0;
55459;PMS5003;41326;45.302;-122.946;2023-04-24T12:33:17;0;0;
55459;PMS5003;41326;45.302;-122.946;2023-04-24T12:35:47;0;0;
55459;PMS5003;41326;45.302;-122.946;2023-04-24T12:38:21;0;0;
55459;PMS5003;41326;45.302;-122.946;2023-04-24T12:41:00;0;0;
55459;PMS5003;41326;45.302;-122.946;2023-04-24T12:43:18;0;0;
55459;PMS5003;41326;45.302;-122.946;2023-04-24T12:45:48;0;0;
55459;PMS5003;41326;45.302;-122.946;2023-04-24T12:48:18;1;0;
55459;PMS5003;41326;45.302;-122.946;2023-04-24T12:50:49;0;0;
55459;PMS5003;41326;45.302;-122.946;2023-04-24T12:53:19;0;0;
55459;PMS5003;41326;45.302;-122.946;2023-04-24T12:55:49;0;0;
55459;PMS5003;41326;45.302;-122.946;2023-04-24T12:58:19;0;0;
55459;PMS5003;41326;45.302;-122.946;2023-04-24T13:00:49;0;0;
55459;PMS5003;41326;45.302;-122.946;2023-04-24T13:03:20;0;0;
55459;PMS5003;41326;45.302;-122.946;2023-04-24T13:05:50;0;0;
55459;PMS5003;41326;45.302;-122.946;2023-04-24T13:08:20;1;0;
55459;PMS5003;41326;45.302;-122.946;2023-04-24T13:10:50;0;0;
55459;PMS5003;41326;45.302;-122.946;2023-04-24T13:13:20;0;0;
55459;PMS5003;41326;45.302;-122.946;2023-04-24T13:15:51;0;0;
55459;PMS5003;41326;45.302;-122.946;2023-04-24T13:18:21;0;0;
55459;PMS5003;41326;45.302;-122.946;2023-04-24T13:20:51;0;0;
55459;PMS5003;41326;45.302;-122.946;2023-04-24T13:23:22;0;0;
55459;PMS5003;41326;45.302;-122.946;2023-04-24T13:25:52;0;0;
55459;PMS5003;41326;45.302;-122.946;2023-04-24T13:28:22;1;0;
55459;PMS5003;41326;45.302;-122.946;2023-04-24T13:30:53;0;0;
55459;PMS5003;41326;45.302;-122.946;2023-04-24T13:33:24;0;0;
55459;PMS5003;41326;45.302;-122.946;2023-04-24T13:35:54;1;0;
55459;PMS5003;41326;45.302;-122.946;2023-04-24T13:38:24;0;0;
55459;PMS5003;41326;45.302;-122.946;2023-04-24T13:40:55;0;0;
55459;PMS5003;41326;45.302;-122.946;2023-04-24T13:43:25;1;1;
55459;PMS5003;41326;45.302;-122.946;2023-04-24T13:45:55;0;0;
55459;PMS5003;41326;45.302;-122.946;2023-04-24T13:48:25;0;0;
55459;PMS5003;41326;45.302;-122.946;2023-04-24T13:50:56;1;0;
55459;PMS5003;41326;45.302;-122.946;2023-04-24T13:53:29;0;0;
55459;PMS5003;41326;45.302;-122.946;2023-04-24T13:55:57;0;0;
55459;PMS5003;41326;45.302;-122.946;2023-04-24T13:58:27;0;0;
55459;PMS5003;41326;45.302;-122.946;2023-04-24T14:00:57;1;0;
55459;PMS5003;41326;45.302;-122.946;2023-04-24T14:03:27;0;0;
55459;PMS5003;41326;45.302;-122.946;2023-04-24T14:05:57;0;0;
55459;PMS5003;41326;45.302;-122.946;2023-04-24T14:08:28;0;0;
55459;PMS5003;41326;45.302;-122.946;2023-04-24T14:10:58;0;0;
55459;PMS5003;41326;45.302;-122.946;2023-04-24T14:13:29;0;0;
55459;PMS5003;41326;45.302;-122.946;2023-04-24T14:15:59;0;0;
55459;PMS5003;41326;45.302;-122.946;2023-04-24T14:18:29;0;0;
55459;PMS5003;41326;45.302;-122.946;2023-04-24T14:21:00;0;0;
55459;PMS5003;41326;45.302;-122.946;2023-04-24T14:23:31;0;0;
55459;PMS5003;41326;45.302;-122.946;2023-04-24T14:26:01;0;0;
55459;PMS5003;41326;45.302;-122.946;2023-04-24T14:28:32;0;0;
55459;PMS5003;41326;45.302;-122.946;2023-04-24T14:31:02;0;0;
55459;PMS5003;41326;45.302;-122.946;2023-04-24T14:33:33;0;0;
55459;PMS5003;41326;45.302;-122.946;2023-04-24T14:36:03;0;0;
55459;PMS5003;41326;45.302;-122.946;2023-04-24T14:38:33;0;0;
55459;PMS5003;41326;45.302;-122.946;2023-04-24T14:41:04;0;0;
55459;PMS5003;41326;45.302;-122.946;2023-04-24T14:43:34;0;0;
55459;PMS5003;41326;45.302;-122.946;2023-04-24T14:46:04;0;0;
55459;PMS5003;41326;45.302;-122.946;2023-04-24T14:48:34;0;0;
55459;PMS5003;41326;45.302;-122.946;2023-04-24T14:51:04;0;0;
55459;PMS5003;41326;45.302;-122.946;2023-04-24T14:53:35;0;0;
55459;PMS5003;41326;45.302;-122.946;2023-04-24T14:56:05;0;0;
55459;PMS5003;41326;45.302;-122.946;2023-04-24T14:58:35;0;0;
55459;PMS5003;41326;45.302;-122.946;2023-04-24T15:01:06;0;0;
55459;PMS5003;41326;45.302;-122.946;2023-04-24T15:03:36;0;0;
55459;PMS5003;41326;45.302;-122.946;2023-04-24T15:06:07;0;0;
55459;PMS5003;41326;45.302;-122.946;2023-04-24T15:08:36;1;0;
55459;PMS5003;41326;45.302;-122.946;2023-04-24T15:11:07;2;0;
55459;PMS5003;41326;45.302;-122.946;2023-04-24T15:13:38;0;0;
55459;PMS5003;41326;45.302;-122.946;2023-04-24T15:16:08;0;0;
55459;PMS5003;41326;45.302;-122.946;2023-04-24T15:18:38;0;0;
55459;PMS5003;41326;45.302;-122.946;2023-04-24T15:21:09;0;0;
55459;PMS5003;41326;45.302;-122.946;2023-04-24T15:23:39;0;0;
55459;PMS5003;41326;45.302;-122.946;2023-04-24T15:26:09;0;0;
55459;PMS5003;41326;45.302;-122.946;2023-04-24T15:28:40;0;0;
55459;PMS5003;41326;45.302;-122.946;2023-04-24T15:31:10;0;0;
55459;PMS5003;41326;45.302;-122.946;2023-04-24T15:33:40;0;0;
55459;PMS5003;41326;45.302;-122.946;2023-04-24T15:36:11;0;0;
55459;PMS5003;41326;45.302;-122.946;2023-04-24T15:38:41;0;0;
55459;PMS5003;41326;45.302;-122.946;2023-04-24T15:41:12;0;0;
55459;PMS5003;41326;45.302;-122.946;2023-04-24T15:43:42;0;0;
55459;PMS5003;41326;45.302;-122.946;2023-04-24T15:46:13;0;0;
55459;PMS5003;41326;45.302;-122.946;2023-04-24T15:48:43;0;0;
55459;PMS5003;41326;45.302;-122.946;2023-04-24T15:51:14;0;0;
55459;PMS5003;41326;45.302;-122.946;2023-04-24T15:53:44;0;0;
55459;PMS5003;41326;45.302;-122.946;2023-04-24T15:56:14;0;0;
55459;PMS5003;41326;45.302;-122.946;2023-04-24T15:58:44;0;0;
55459;PMS5003;41326;45.302;-122.946;2023-04-24T16:01:14;0;0;
55459;PMS5003;41326;45.302;-122.946;2023-04-24T16:03:45;0;0;
55459;PMS5003;41326;45.302;-122.946;2023-04-24T16:06:15;0;0;
55459;PMS5003;41326;45.302;-122.946;2023-04-24T16:08:45;0;0;
55459;PMS5003;41326;45.302;-122.946;2023-04-24T16:11:16;1;0;
55459;PMS5003;41326;45.302;-122.946;2023-04-24T16:13:46;0;0;
55459;PMS5003;41326;45.302;-122.946;2023-04-24T16:16:16;0;0;
55459;PMS5003;41326;45.302;-122.946;2023-04-24T16:18:47;0;0;
55459;PMS5003;41326;45.302;-122.946;2023-04-24T16:21:17;0;0;
55459;PMS5003;41326;45.302;-122.946;2023-04-24T16:23:47;0;0;
55459;PMS5003;41326;45.302;-122.946;2023-04-24T16:26:17;0;0;
55459;PMS5003;41326;45.302;-122.946;2023-04-24T16:28:48;0;0;
55459;PMS5003;41326;45.302;-122.946;2023-04-24T16:31:18;0;0;